createdAt,value
2023-05-12T00:00:01.588Z,116943.30
2023-05-12T00:01:04.464Z,116943.30
2023-05-12T00:02:07.443Z,116943.30
2023-05-12T00:03:10.565Z,116943.30
2023-05-12T00:04:13.426Z,116943.30
2023-05-12T00:05:16.080Z,116943.30
2023-05-12T00:06:18.731Z,116943.30
2023-05-12T00:07:21.301Z,116943.30
2023-05-12T00:08:23.976Z,116943.30
2023-05-12T00:09:26.638Z,116943.30
2023-05-12T00:10:29.318Z,116943.30
2023-05-12T00:11:31.977Z,116943.30
2023-05-12T00:12:34.852Z,116943.30
2023-05-12T00:13:37.550Z,116943.30
2023-05-12T00:14:40.299Z,116943.30
2023-05-12T00:15:42.964Z,116943.30
2023-05-12T00:16:45.683Z,116943.30
2023-05-12T00:17:48.330Z,116943.30
2023-05-12T00:18:51.017Z,116943.30
2023-05-12T00:19:53.655Z,116943.30
2023-05-12T00:20:56.214Z,116943.30
2023-05-12T00:21:58.879Z,116943.30
2023-05-12T00:23:01.548Z,116943.30
2023-05-12T00:24:04.227Z,116943.30
2023-05-12T00:25:07.127Z,116943.30
2023-05-12T00:26:09.772Z,116943.30
2023-05-12T00:27:12.544Z,116943.30
2023-05-12T00:28:15.221Z,116943.30
2023-05-12T00:29:17.771Z,116943.30
2023-05-12T00:30:20.643Z,116943.30
2023-05-12T00:31:23.763Z,116943.30
2023-05-12T00:32:26.944Z,116943.30
2023-05-12T00:33:29.815Z,116943.30
2023-05-12T00:34:32.773Z,116943.30
2023-05-12T00:35:35.640Z,116943.30
2023-05-12T00:36:38.524Z,116943.30
2023-05-12T00:37:41.702Z,116943.30
2023-05-12T00:38:44.469Z,116943.30
2023-05-12T00:39:47.458Z,116943.30
2023-05-12T00:40:50.530Z,116943.30
2023-05-12T00:41:53.505Z,116943.30
2023-05-12T00:42:56.890Z,116943.30
2023-05-12T00:43:59.784Z,116943.30
2023-05-12T00:45:02.642Z,116943.30
2023-05-12T00:46:05.605Z,116943.30
2023-05-12T00:47:08.592Z,111667.88
2023-05-12T00:48:11.625Z,13552.74
2023-05-12T00:49:14.443Z,-14321.48
2023-05-12T00:50:17.433Z,-14321.48
2023-05-12T00:51:20.505Z,-14321.48
2023-05-12T00:52:23.485Z,-14321.48
2023-05-12T00:53:32.582Z,-14321.48
2023-05-12T00:54:31.397Z,-14321.48
2023-05-12T00:55:34.252Z,-14321.48
2023-05-12T00:56:37.331Z,-14321.48
2023-05-12T00:57:40.310Z,-14321.48
2023-05-12T00:58:43.508Z,-14321.48
2023-05-12T00:59:46.262Z,-14321.48
2023-05-12T01:00:49.213Z,-14321.48
2023-05-12T01:01:51.819Z,-14321.48
2023-05-12T01:02:54.487Z,-14321.48
2023-05-12T01:03:57.150Z,-13690.38
2023-05-12T01:04:59.815Z,-13690.38
2023-05-12T01:06:02.392Z,-14321.48
2023-05-12T01:07:05.052Z,-14321.48
2023-05-12T01:08:07.521Z,-13186.02
2023-05-12T01:09:10.198Z,-12429.35
2023-05-12T01:10:12.968Z,-12050.96
2023-05-12T01:11:15.839Z,-4222.54
2023-05-12T01:12:18.614Z,15418.41
2023-05-12T01:13:21.488Z,44323.05
2023-05-12T01:14:24.477Z,51753.61
2023-05-12T01:15:27.334Z,51521.22
2023-05-12T01:16:33.398Z,73005.88
2023-05-12T01:17:36.382Z,75584.86
2023-05-12T01:18:39.398Z,102875.12
2023-05-12T01:19:42.622Z,79069.12
2023-05-12T01:20:45.401Z,80876.97
2023-05-12T01:21:48.269Z,56154.63
2023-05-12T01:22:51.046Z,79585.56
2023-05-12T01:23:53.919Z,89410.65
2023-05-12T01:24:56.902Z,76874.97
2023-05-12T01:25:59.772Z,85917.41
2023-05-12T01:27:02.641Z,83202.55
2023-05-12T01:28:05.640Z,58080.54
2023-05-12T01:29:08.599Z,51673.47
2023-05-12T01:30:11.791Z,51509.20
2023-05-12T01:31:14.780Z,60906.91
2023-05-12T01:32:17.531Z,67209.23
2023-05-12T01:33:20.412Z,79843.81
2023-05-12T01:34:23.283Z,83719.52
2023-05-12T01:35:26.357Z,102245.11
2023-05-12T01:36:29.248Z,116943.30
2023-05-12T01:37:32.016Z,116943.30
2023-05-12T01:38:34.778Z,116797.70
2023-05-12T01:39:37.459Z,116943.30
2023-05-12T01:40:40.632Z,116943.30
2023-05-12T01:41:43.192Z,116943.30
2023-05-12T01:42:45.861Z,116943.30
2023-05-12T01:43:48.530Z,116943.30
2023-05-12T01:44:51.203Z,116943.30
2023-05-12T01:45:54.177Z,116943.30
2023-05-12T01:46:56.865Z,116943.30
2023-05-12T01:47:59.696Z,116943.30
2023-05-12T01:49:02.492Z,116943.30
2023-05-12T01:50:05.167Z,116943.30
2023-05-12T01:51:07.843Z,116943.30
2023-05-12T01:52:10.498Z,116943.30
2023-05-12T01:53:13.284Z,116943.30
2023-05-12T01:54:16.213Z,116943.30
2023-05-12T01:55:19.142Z,116943.30
2023-05-12T01:56:22.113Z,116943.30
2023-05-12T01:57:24.985Z,116943.30
2023-05-12T01:58:27.848Z,116943.30
2023-05-12T01:59:30.725Z,116943.30
2023-05-12T02:00:33.501Z,116943.30
2023-05-12T02:01:36.293Z,116943.30
2023-05-12T02:02:40.287Z,116356.91
2023-05-12T02:03:43.253Z,116943.30
2023-05-12T02:04:45.921Z,116943.30
2023-05-12T02:05:48.592Z,116943.30
2023-05-12T02:06:51.254Z,116943.30
2023-05-12T02:07:53.826Z,116943.30
2023-05-12T02:08:56.496Z,116943.30
2023-05-12T02:09:59.165Z,116943.30
2023-05-12T02:11:02.044Z,116943.30
2023-05-12T02:12:05.048Z,116943.30
2023-05-12T02:13:07.586Z,116943.30
2023-05-12T02:14:10.357Z,116943.30
2023-05-12T02:15:13.139Z,116943.30
2023-05-12T02:16:16.023Z,116943.30
2023-05-12T02:17:18.981Z,116943.30
2023-05-12T02:18:21.832Z,116943.30
2023-05-12T02:19:24.742Z,116943.30
2023-05-12T02:20:27.599Z,116943.30
2023-05-12T02:21:30.482Z,116943.30
2023-05-12T02:22:33.553Z,116943.30
2023-05-12T02:23:36.337Z,116943.30
2023-05-12T02:24:39.205Z,116943.30
2023-05-12T02:25:42.090Z,116943.30
2023-05-12T02:26:44.958Z,116943.30
2023-05-12T02:27:48.042Z,116943.30
2023-05-12T02:28:50.911Z,116943.30
2023-05-12T02:29:53.682Z,116943.30
2023-05-12T02:30:56.562Z,116943.30
2023-05-12T02:31:59.155Z,116811.96
2023-05-12T02:33:01.849Z,116943.30
2023-05-12T02:34:06.584Z,116943.30
2023-05-12T02:35:09.087Z,116943.30
2023-05-12T02:36:11.956Z,116943.30
2023-05-12T02:37:14.829Z,116943.30
2023-05-12T02:38:17.810Z,116943.30
2023-05-12T02:39:20.791Z,116943.30
2023-05-12T02:40:23.654Z,116942.28
2023-05-12T02:41:26.535Z,116942.28
2023-05-12T02:42:29.100Z,116681.65
2023-05-12T02:43:32.177Z,116160.45
2023-05-12T02:44:35.054Z,116290.75
2023-05-12T02:45:37.939Z,116551.34
2023-05-12T02:46:40.802Z,116942.28
2023-05-12T02:47:43.599Z,116943.30
2023-05-12T02:48:46.656Z,116943.30
2023-05-12T02:49:49.635Z,116943.30
2023-05-12T02:50:52.412Z,116943.30
2023-05-12T02:51:55.495Z,116943.30
2023-05-12T02:52:58.360Z,116943.30
2023-05-12T02:54:01.336Z,116943.30
2023-05-12T02:55:04.207Z,116943.30
2023-05-12T02:56:07.090Z,116943.30
2023-05-12T02:57:10.169Z,116943.30
2023-05-12T02:58:13.053Z,116943.30
2023-05-12T02:59:16.030Z,116943.30
2023-05-12T03:00:18.964Z,116943.30
2023-05-12T03:01:21.700Z,116943.30
2023-05-12T03:02:24.360Z,116943.30
2023-05-12T03:03:27.141Z,116943.30
2023-05-12T03:04:30.300Z,116943.30
2023-05-12T03:05:32.858Z,116943.30
2023-05-12T03:06:35.537Z,116943.30
2023-05-12T03:07:38.199Z,116943.30
2023-05-12T03:08:40.866Z,116943.30
2023-05-12T03:09:43.650Z,116943.30
2023-05-12T03:10:46.308Z,116943.30
2023-05-12T03:11:49.186Z,116943.30
2023-05-12T03:12:51.954Z,116943.30
2023-05-12T03:13:54.727Z,116943.30
2023-05-12T03:14:57.805Z,116943.30
2023-05-12T03:16:00.680Z,116943.30
2023-05-12T03:17:03.596Z,116943.30
2023-05-12T03:18:06.580Z,116943.30
2023-05-12T03:19:09.559Z,116362.00
2023-05-12T03:20:12.490Z,104842.87
2023-05-12T03:21:18.436Z,116540.15
2023-05-12T03:22:21.409Z,116943.30
2023-05-12T03:23:24.385Z,116943.30
2023-05-12T03:24:27.264Z,116943.30
2023-05-12T03:25:30.239Z,116943.30
2023-05-12T03:26:33.026Z,116943.30
2023-05-12T03:27:38.967Z,116943.30
2023-05-12T03:28:41.837Z,116943.30
2023-05-12T03:29:44.709Z,116943.30
2023-05-12T03:30:47.886Z,116943.30
2023-05-12T03:31:50.791Z,116943.30
2023-05-12T03:32:53.716Z,116943.30
2023-05-12T03:33:56.719Z,116943.30
2023-05-12T03:34:59.284Z,79069.12
2023-05-12T03:36:01.959Z,104842.87
2023-05-12T03:37:04.629Z,116736.63
2023-05-12T03:38:07.309Z,116943.30
2023-05-12T03:39:09.862Z,116943.30
2023-05-12T03:40:12.434Z,116943.30
2023-05-12T03:41:14.999Z,116943.30
2023-05-12T03:42:17.675Z,116943.30
2023-05-12T03:43:20.337Z,116943.30
2023-05-12T03:44:22.914Z,116943.30
2023-05-12T03:45:25.627Z,116943.30
2023-05-12T03:46:28.826Z,116943.30
2023-05-12T03:47:31.933Z,116943.30
2023-05-12T03:48:34.808Z,116943.30
2023-05-12T03:49:37.478Z,116943.30
2023-05-12T03:50:40.148Z,116943.30
2023-05-12T03:51:43.042Z,70557.38
2023-05-12T03:52:46.103Z,60392.88
2023-05-12T03:53:48.783Z,71072.73
2023-05-12T03:54:51.445Z,83719.52
2023-05-12T03:55:54.116Z,98611.03
2023-05-12T03:56:56.886Z,116943.30
2023-05-12T03:57:59.556Z,116943.30
2023-05-12T03:59:02.130Z,116943.30
2023-05-12T04:00:04.795Z,116811.96
2023-05-12T04:01:07.359Z,116942.28
2023-05-12T04:02:10.163Z,116681.65
2023-05-12T04:03:12.782Z,115639.32
2023-05-12T04:04:15.673Z,114206.55
2023-05-12T04:05:18.566Z,111602.80
2023-05-12T04:06:21.325Z,114988.00
2023-05-12T04:07:24.197Z,116943.30
2023-05-12T04:08:26.973Z,116943.30
2023-05-12T04:09:29.855Z,116943.30
2023-05-12T04:10:32.729Z,116943.30
2023-05-12T04:11:35.597Z,116551.34
2023-05-12T04:12:38.684Z,114857.75
2023-05-12T04:13:41.964Z,112513.92
2023-05-12T04:14:44.739Z,114076.33
2023-05-12T04:15:47.513Z,114988.00
2023-05-12T04:16:50.312Z,114857.75
2023-05-12T04:17:53.427Z,115639.32
2023-05-12T04:18:56.362Z,114076.33
2023-05-12T04:19:59.106Z,111863.11
2023-05-12T04:21:02.083Z,109521.00
2023-05-12T04:22:04.749Z,108220.42
2023-05-12T04:23:07.835Z,110691.89
2023-05-12T04:24:10.806Z,115118.26
2023-05-12T04:25:13.782Z,114597.26
2023-05-12T04:26:16.657Z,113295.05
2023-05-12T04:27:19.553Z,112513.92
2023-05-12T04:28:22.634Z,114597.26
2023-05-12T04:29:25.383Z,116030.16
2023-05-12T04:30:28.259Z,114727.50
2023-05-12T04:31:31.159Z,116943.30
2023-05-12T04:32:34.050Z,116943.30
2023-05-12T04:33:37.306Z,116943.30
2023-05-12T04:34:40.083Z,115655.61
2023-05-12T04:35:42.861Z,116943.30
2023-05-12T04:36:45.721Z,116943.30
2023-05-12T04:37:48.695Z,116943.30
2023-05-12T04:38:51.694Z,116943.30
2023-05-12T04:39:54.765Z,116943.30
2023-05-12T04:40:57.624Z,116943.30
2023-05-12T04:42:00.595Z,116943.30
2023-05-12T04:43:03.477Z,94461.78
2023-05-12T04:44:06.355Z,116943.30
2023-05-12T04:45:09.156Z,116943.30
2023-05-12T04:46:12.150Z,116943.30
2023-05-12T04:47:14.971Z,116943.30
2023-05-12T04:48:17.749Z,112540.37
2023-05-12T04:49:20.520Z,77907.36
2023-05-12T04:50:23.298Z,53075.11
2023-05-12T04:51:26.704Z,41164.81
2023-05-12T04:52:29.654Z,40781.20
2023-05-12T04:53:32.530Z,36436.20
2023-05-12T04:54:35.733Z,32606.37
2023-05-12T04:55:38.485Z,29800.21
2023-05-12T04:56:41.157Z,27633.18
2023-05-12T04:57:43.833Z,28525.34
2023-05-12T04:58:46.395Z,20121.65
2023-05-12T04:59:51.196Z,20248.84
2023-05-12T05:00:53.977Z,21393.77
2023-05-12T05:01:56.652Z,16688.99
2023-05-12T05:02:59.375Z,18468.51
2023-05-12T05:04:01.999Z,46155.18
2023-05-12T05:05:04.765Z,82168.78
2023-05-12T05:06:07.433Z,107442.30
2023-05-12T05:07:10.114Z,116943.30
2023-05-12T05:08:12.788Z,116943.30
2023-05-12T05:09:15.556Z,116943.30
2023-05-12T05:10:18.128Z,76616.91
2023-05-12T05:11:20.787Z,65150.24
2023-05-12T05:12:23.354Z,65021.59
2023-05-12T05:13:26.245Z,56668.11
2023-05-12T05:14:28.908Z,62963.72
2023-05-12T05:15:31.910Z,47948.14
2023-05-12T05:16:34.757Z,37074.87
2023-05-12T05:17:37.527Z,35925.34
2023-05-12T05:18:40.452Z,64764.29
2023-05-12T05:19:54.810Z,83461.02
2023-05-12T05:20:56.068Z,116943.30
2023-05-12T05:21:52.094Z,99519.24
2023-05-12T05:22:54.860Z,53973.05
2023-05-12T05:23:57.737Z,37458.12
2023-05-12T05:25:00.518Z,34010.21
2023-05-12T05:26:03.689Z,40653.34
2023-05-12T05:27:06.460Z,36180.77
2023-05-12T05:28:09.438Z,24830.58
2023-05-12T05:29:12.117Z,18087.12
2023-05-12T05:30:15.092Z,13005.44
2023-05-12T05:31:17.985Z,9705.91
2023-05-12T05:32:20.873Z,9452.22
2023-05-12T05:33:23.917Z,4508.52
2023-05-12T05:34:26.900Z,4255.17
2023-05-12T05:35:29.765Z,-428.86
2023-05-12T05:36:32.949Z,-4096.14
2023-05-12T05:37:36.233Z,-7886.21
2023-05-12T05:38:39.345Z,-9653.62
2023-05-12T05:39:42.187Z,-10789.39
2023-05-12T05:40:52.779Z,-12177.10
2023-05-12T05:41:49.677Z,-14320.74
2023-05-12T05:42:52.651Z,-14321.48
2023-05-12T05:43:55.521Z,-14321.48
2023-05-12T05:44:58.416Z,-14321.48
2023-05-12T05:46:01.419Z,-14321.48
2023-05-12T05:47:04.562Z,-14321.48
2023-05-12T05:48:07.567Z,-14321.48
2023-05-12T05:49:10.415Z,-14321.48
2023-05-12T05:50:13.300Z,-14321.48
2023-05-12T05:51:16.274Z,-14321.48
2023-05-12T05:52:19.258Z,-14321.48
2023-05-12T05:53:22.852Z,-14321.48
2023-05-12T05:54:25.814Z,-14321.48
2023-05-12T05:55:28.589Z,-14321.48
2023-05-12T05:56:31.556Z,-14321.48
2023-05-12T05:57:34.741Z,-14321.48
2023-05-12T05:58:40.684Z,-14321.48
2023-05-12T05:59:43.569Z,-14321.48
2023-05-12T06:00:46.230Z,-14321.48
2023-05-12T06:01:49.101Z,-14321.48
2023-05-12T06:02:52.234Z,-14321.48
2023-05-12T06:03:54.987Z,-14321.48
2023-05-12T06:04:57.653Z,-14321.48
2023-05-12T06:06:00.320Z,-14321.48
2023-05-12T06:07:02.866Z,-14321.48
2023-05-12T06:08:05.532Z,-14321.48
2023-05-12T06:09:08.200Z,-14321.48
2023-05-12T06:10:10.772Z,-14321.48
2023-05-12T06:11:13.755Z,-14321.48
2023-05-12T06:12:17.133Z,-14321.48
2023-05-12T06:13:20.112Z,-14321.48
2023-05-12T06:14:23.005Z,-14321.48
2023-05-12T06:15:25.862Z,-14321.48
2023-05-12T06:16:28.637Z,-14321.48
2023-05-12T06:17:32.849Z,-14321.48
2023-05-12T06:18:35.933Z,-14321.48
2023-05-12T06:19:38.809Z,-14321.48
2023-05-12T06:20:41.686Z,-14321.48
2023-05-12T06:21:44.434Z,-14321.48
2023-05-12T06:22:47.345Z,-14321.48
2023-05-12T06:23:50.189Z,-14321.48
2023-05-12T06:24:53.066Z,-14321.48
2023-05-12T06:25:56.046Z,-13623.40
2023-05-12T06:26:58.910Z,140.27
2023-05-12T06:28:01.804Z,27102.31
2023-05-12T06:29:05.085Z,55622.16
2023-05-12T06:30:08.047Z,89006.19
2023-05-12T06:31:11.238Z,112523.08
2023-05-12T06:32:13.952Z,116943.30
2023-05-12T06:33:16.579Z,116943.30
2023-05-12T06:34:19.652Z,116943.30
2023-05-12T06:35:22.468Z,116943.30
2023-05-12T06:36:25.036Z,116943.30
2023-05-12T06:37:27.667Z,116943.30
2023-05-12T06:38:30.337Z,116943.30
2023-05-12T06:39:33.413Z,116943.30
2023-05-12T06:40:35.865Z,116943.30
2023-05-12T06:41:38.347Z,116943.30
2023-05-12T06:42:41.012Z,116943.30
2023-05-12T06:43:43.582Z,116943.30
2023-05-12T06:44:46.458Z,116943.30
2023-05-12T06:45:49.170Z,116943.30
2023-05-12T06:46:52.002Z,116943.30
2023-05-12T06:47:54.918Z,116943.30
2023-05-12T06:48:58.781Z,116943.30
2023-05-12T06:50:01.657Z,116943.30
2023-05-12T06:51:04.422Z,116943.30
2023-05-12T06:52:07.325Z,116943.30
2023-05-12T06:53:10.169Z,116943.30
2023-05-12T06:54:14.070Z,116943.30
2023-05-12T06:55:17.178Z,116943.30
2023-05-12T06:56:20.024Z,116943.30
2023-05-12T06:57:23.117Z,116943.30
2023-05-12T06:58:25.676Z,116943.30
2023-05-12T06:59:28.337Z,116943.30
2023-05-12T07:00:31.126Z,116943.30
2023-05-12T07:01:33.836Z,116943.30
2023-05-12T07:02:36.468Z,116943.30
2023-05-12T07:03:39.249Z,116943.30
2023-05-12T07:04:41.893Z,116943.30
2023-05-12T07:05:44.733Z,116943.30
2023-05-12T07:06:47.437Z,116943.30
2023-05-12T07:07:50.112Z,116943.30
2023-05-12T07:08:52.792Z,116943.30
2023-05-12T07:09:55.345Z,116943.30
2023-05-12T07:10:58.122Z,116943.30
2023-05-12T07:12:00.789Z,116943.30
2023-05-12T07:13:03.355Z,116943.30
2023-05-12T07:14:05.919Z,116943.30
2023-05-12T07:15:08.571Z,116943.30
2023-05-12T07:16:11.290Z,116943.30
2023-05-12T07:17:14.039Z,116943.30
2023-05-12T07:18:16.700Z,116943.30
2023-05-12T07:19:19.383Z,116943.30
2023-05-12T07:20:22.253Z,116943.30
2023-05-12T07:21:25.349Z,116943.30
2023-05-12T07:22:28.099Z,116943.30
2023-05-12T07:23:31.091Z,116943.30
2023-05-12T07:24:33.847Z,116943.30
2023-05-12T07:25:36.927Z,116943.30
2023-05-12T07:26:40.009Z,116943.30
2023-05-12T07:27:42.876Z,116943.30
2023-05-12T07:28:45.766Z,116943.30
2023-05-12T07:29:48.625Z,116943.30
2023-05-12T07:30:51.632Z,116943.30
2023-05-12T07:31:54.706Z,116943.30
2023-05-12T07:33:00.434Z,116943.30
2023-05-12T07:34:03.205Z,116943.30
2023-05-12T07:35:05.973Z,116943.30
2023-05-12T07:36:08.848Z,116943.30
2023-05-12T07:37:11.844Z,116943.30
2023-05-12T07:38:14.706Z,116943.30
2023-05-12T07:39:17.576Z,116943.30
2023-05-12T07:40:20.457Z,116943.30
2023-05-12T07:41:23.432Z,116943.30
2023-05-12T07:42:26.506Z,116943.30
2023-05-12T07:43:29.379Z,116943.30
2023-05-12T07:44:32.372Z,116943.30
2023-05-12T07:45:35.237Z,116943.30
2023-05-12T07:46:38.133Z,116943.30
2023-05-12T07:47:41.001Z,116943.30
2023-05-12T07:48:43.857Z,116943.30
2023-05-12T07:49:46.537Z,116943.30
2023-05-12T07:50:49.412Z,116943.30
2023-05-12T07:51:52.083Z,116943.30
2023-05-12T07:52:56.384Z,116943.30
2023-05-12T07:53:58.958Z,116943.30
2023-05-12T07:55:01.721Z,116943.30
2023-05-12T07:56:04.390Z,116943.30
2023-05-12T07:57:07.167Z,116943.30
2023-05-12T07:58:09.854Z,116943.30
2023-05-12T07:59:12.401Z,116943.30
2023-05-12T08:00:15.065Z,116943.30
2023-05-12T08:01:17.738Z,116943.30
2023-05-12T08:02:20.333Z,116943.30
2023-05-12T08:03:23.051Z,116943.30
2023-05-12T08:04:25.730Z,116943.30
2023-05-12T08:05:28.350Z,116943.30
2023-05-12T08:06:30.984Z,116943.30
2023-05-12T08:07:33.661Z,116943.30
2023-05-12T08:08:36.320Z,116943.30
2023-05-12T08:09:39.203Z,116943.30
2023-05-12T08:10:42.129Z,116943.30
2023-05-12T08:11:47.050Z,116943.30
2023-05-12T08:12:49.497Z,116943.30
2023-05-12T08:13:52.335Z,116943.30
2023-05-12T08:14:55.308Z,116943.30
2023-05-12T08:15:58.203Z,116943.30
2023-05-12T08:17:01.195Z,116943.30
2023-05-12T08:18:04.160Z,116943.30
2023-05-12T08:19:07.411Z,116943.30
2023-05-12T08:20:10.305Z,116943.30
2023-05-12T08:21:13.176Z,116943.30
2023-05-12T08:22:15.851Z,116943.30
2023-05-12T08:23:18.725Z,116943.30
2023-05-12T08:24:21.806Z,116943.30
2023-05-12T08:25:24.680Z,116943.30
2023-05-12T08:26:27.545Z,116943.30
2023-05-12T08:27:30.426Z,116943.30
2023-05-12T08:28:33.397Z,116943.30
2023-05-12T08:29:36.502Z,116943.30
2023-05-12T08:30:39.256Z,116943.30
2023-05-12T08:31:42.231Z,116943.30
2023-05-12T08:32:45.121Z,116943.30
2023-05-12T08:33:51.837Z,116943.30
2023-05-12T08:34:52.688Z,116943.30
2023-05-12T08:35:55.472Z,116943.30
2023-05-12T08:36:58.334Z,116943.30
2023-05-12T08:38:01.223Z,116943.30
2023-05-12T08:39:04.127Z,116943.30
2023-05-12T08:40:07.065Z,116943.30
2023-05-12T08:41:09.837Z,116943.30
2023-05-12T08:42:15.905Z,116943.30
2023-05-12T08:43:18.571Z,116943.30
2023-05-12T08:44:21.431Z,116943.30
2023-05-12T08:45:26.221Z,116943.30
2023-05-12T08:46:29.102Z,116943.30
2023-05-12T08:47:32.025Z,116943.30
2023-05-12T08:48:34.880Z,116943.30
2023-05-12T08:49:37.748Z,116943.30
2023-05-12T08:50:40.940Z,116943.30
2023-05-12T08:51:43.499Z,116943.30
2023-05-12T08:52:48.943Z,116943.30
2023-05-12T08:53:51.605Z,116943.30
2023-05-12T08:54:56.600Z,116943.30
2023-05-12T08:57:09.513Z,116943.30
2023-05-12T08:58:08.020Z,116943.30
2023-05-12T08:59:10.903Z,116943.30
2023-05-12T09:00:16.196Z,116943.30
2023-05-12T09:01:18.884Z,116943.30
2023-05-12T09:02:21.670Z,116943.30
2023-05-12T09:03:24.285Z,116943.30
2023-05-12T09:04:26.960Z,116943.30
2023-05-12T09:05:29.569Z,116943.30
2023-05-12T09:06:32.666Z,116943.30
2023-05-12T09:07:35.630Z,116943.30
2023-05-12T09:08:38.510Z,116943.30
2023-05-12T09:09:41.379Z,116943.30
2023-05-12T09:10:44.257Z,116943.30
2023-05-12T09:11:47.453Z,116943.30
2023-05-12T09:12:50.113Z,116943.30
2023-05-12T09:13:53.092Z,116943.30
2023-05-12T09:14:56.069Z,116943.30
2023-05-12T09:15:59.029Z,116943.30
2023-05-12T09:17:02.020Z,116943.30
2023-05-12T09:18:04.914Z,116943.30
2023-05-12T09:19:07.968Z,116943.30
2023-05-12T09:20:20.568Z,116943.30
2023-05-12T09:21:15.353Z,116943.30
2023-05-12T09:22:18.246Z,116943.30
2023-05-12T09:23:20.801Z,116943.30
2023-05-12T09:24:23.594Z,116943.30
2023-05-12T09:25:26.364Z,116943.30
2023-05-12T09:26:29.216Z,116943.30
2023-05-12T09:27:32.810Z,116943.30
2023-05-12T09:28:35.695Z,116943.30
2023-05-12T09:29:45.401Z,116943.30
2023-05-12T09:30:42.905Z,116943.30
2023-05-12T09:31:46.123Z,116943.30
2023-05-12T09:32:52.876Z,116943.30
2023-05-12T09:33:55.506Z,116943.30
2023-05-12T09:34:58.468Z,116943.30
2023-05-12T09:36:01.249Z,116943.30
2023-05-12T09:37:04.117Z,116943.30
2023-05-12T09:38:07.313Z,116943.30
2023-05-12T09:39:10.170Z,116943.30
2023-05-12T09:40:12.947Z,116943.30
2023-05-12T09:41:15.816Z,116943.30
2023-05-12T09:42:18.696Z,116943.30
2023-05-12T09:43:21.722Z,116943.30
2023-05-12T09:44:24.645Z,116943.30
2023-05-12T09:45:27.521Z,116943.30
2023-05-12T09:46:30.332Z,116943.30
2023-05-12T09:47:33.184Z,116943.30
2023-05-12T09:48:36.261Z,116943.30
2023-05-12T09:49:39.033Z,116943.30
2023-05-12T09:50:47.225Z,116943.30
2023-05-12T09:51:46.011Z,116943.30
2023-05-12T09:52:49.894Z,116943.30
2023-05-12T09:53:52.770Z,116943.30
2023-05-12T09:54:55.341Z,116943.30
2023-05-12T09:55:58.001Z,116943.30
2023-05-12T09:57:00.693Z,116943.30
2023-05-12T09:58:03.344Z,116943.30
2023-05-12T09:59:06.223Z,116943.30
2023-05-12T10:00:16.615Z,116943.30
2023-05-12T10:01:22.536Z,116943.30
2023-05-12T10:02:17.147Z,116943.30
2023-05-12T10:03:19.770Z,116943.30
2023-05-12T10:04:22.651Z,116943.30
2023-05-12T10:05:25.308Z,116943.30
2023-05-12T10:06:27.980Z,116943.30
2023-05-12T10:07:30.750Z,116943.30
2023-05-12T10:08:33.428Z,116943.30
2023-05-12T10:09:36.198Z,116943.30
2023-05-12T10:10:38.865Z,116943.30
2023-05-12T10:11:41.543Z,116943.30
2023-05-12T10:12:44.410Z,116943.30
2023-05-12T10:13:47.406Z,116943.30
2023-05-12T10:14:50.477Z,116943.30
2023-05-12T10:15:53.235Z,116943.30
2023-05-12T10:16:56.035Z,116943.30
2023-05-12T10:17:58.935Z,116943.30
2023-05-12T10:19:01.799Z,116943.30
2023-05-12T10:20:04.757Z,116943.30
2023-05-12T10:21:07.506Z,116943.30
2023-05-12T10:22:10.280Z,116943.30
2023-05-12T10:23:13.186Z,116943.30
2023-05-12T10:24:16.055Z,116943.30
2023-05-12T10:25:19.621Z,116943.30
2023-05-12T10:26:22.610Z,116943.30
2023-05-12T10:27:25.587Z,116943.30
2023-05-12T10:28:28.456Z,116943.30
2023-05-12T10:29:31.228Z,116943.30
2023-05-12T10:30:34.200Z,116943.30
2023-05-12T10:31:36.909Z,116943.30
2023-05-12T10:32:39.664Z,116943.30
2023-05-12T10:33:42.625Z,116943.30
2023-05-12T10:34:45.504Z,116943.30
2023-05-12T10:35:49.560Z,116943.30
2023-05-12T10:36:52.777Z,116943.30
2023-05-12T10:37:55.353Z,116943.30
2023-05-12T10:38:58.327Z,116943.30
2023-05-12T10:40:01.221Z,116943.30
2023-05-12T10:41:04.182Z,116943.30
2023-05-12T10:42:07.197Z,116943.30
2023-05-12T10:43:09.924Z,116943.30
2023-05-12T10:44:12.897Z,116943.30
2023-05-12T10:45:15.788Z,116943.30
2023-05-12T10:46:18.677Z,116943.30
2023-05-12T10:47:21.857Z,116943.30
2023-05-12T10:48:24.706Z,116943.30
2023-05-12T10:49:27.576Z,116943.30
2023-05-12T10:50:30.564Z,116943.30
2023-05-12T10:51:33.324Z,116943.30
2023-05-12T10:52:36.305Z,116943.30
2023-05-12T10:53:49.291Z,116943.30
2023-05-12T10:54:43.488Z,116943.30
2023-05-12T10:55:46.375Z,116943.30
2023-05-12T10:56:50.089Z,116943.30
2023-05-12T10:57:53.257Z,116943.30
2023-05-12T10:58:56.380Z,116943.30
2023-05-12T10:59:59.756Z,116943.30
2023-05-12T11:01:03.186Z,116943.30
2023-05-12T11:02:07.877Z,116943.30
2023-05-12T11:03:11.492Z,116943.30
2023-05-12T11:04:14.637Z,116943.30
2023-05-12T11:05:17.912Z,116943.30
2023-05-12T11:06:21.248Z,116943.30
2023-05-12T11:07:24.690Z,116943.30
2023-05-12T11:08:28.451Z,116943.30
2023-05-12T11:09:31.502Z,116943.30
2023-05-12T11:10:35.403Z,116943.30
2023-05-12T11:11:38.657Z,116943.30
2023-05-12T11:12:41.681Z,116943.30
2023-05-12T11:13:44.468Z,116943.30
2023-05-12T11:14:47.243Z,116943.30
2023-05-12T11:15:50.027Z,116943.30
2023-05-12T11:16:52.980Z,116943.30
2023-05-12T11:17:55.967Z,116943.30
2023-05-12T11:18:58.941Z,116943.30
2023-05-12T11:20:02.060Z,116943.30
2023-05-12T11:21:04.880Z,116943.30
2023-05-12T11:22:07.770Z,116943.30
2023-05-12T11:23:13.597Z,116943.30
2023-05-12T11:24:20.138Z,116943.30
2023-05-12T11:25:23.350Z,116943.30
2023-05-12T11:26:26.428Z,116943.30
2023-05-12T11:27:31.838Z,116943.30
2023-05-12T11:28:34.738Z,116943.30
2023-05-12T11:29:37.508Z,116943.30
2023-05-12T11:30:40.376Z,116943.30
2023-05-12T11:31:43.286Z,116943.30
2023-05-12T11:32:45.890Z,116943.30
2023-05-12T11:33:51.834Z,116943.30
2023-05-12T11:34:52.811Z,116943.30
2023-05-12T11:35:55.678Z,116943.30
2023-05-12T11:36:58.549Z,116943.30
2023-05-12T11:38:01.427Z,116943.30
2023-05-12T11:39:04.405Z,116943.30
2023-05-12T11:40:07.181Z,116943.30
2023-05-12T11:41:09.946Z,116943.30
2023-05-12T11:42:14.282Z,116943.30
2023-05-12T11:43:17.240Z,116943.30
2023-05-12T11:44:20.110Z,116943.30
2023-05-12T11:45:23.171Z,116943.30
2023-05-12T11:46:26.016Z,116943.30
2023-05-12T11:47:28.661Z,116943.30
2023-05-12T11:48:31.512Z,116943.30
2023-05-12T11:49:34.484Z,116943.30
2023-05-12T11:50:37.257Z,116943.30
2023-05-12T11:51:40.130Z,116943.30
2023-05-12T11:52:43.000Z,116943.30
2023-05-12T11:53:45.877Z,116943.30
2023-05-12T11:54:48.980Z,116943.30
2023-05-12T11:55:51.632Z,116943.30
2023-05-12T11:56:54.203Z,116943.30
2023-05-12T11:57:56.871Z,116943.30
2023-05-12T11:58:59.539Z,116943.30
2023-05-12T12:00:02.319Z,116943.30
2023-05-12T12:01:04.881Z,116943.30